sensor_id;sensor_type;location;lat;lon;timestamp;P1;durP1;ratioP1;P2;durP2;ratioP2
65206;SDS011;58477;48.072;11.970;2023-04-15T00:01:23;3.67;;;2.08;;
65206;SDS011;58477;48.072;11.970;2023-04-15T00:03:52;5.38;;;2.28;;
65206;SDS011;58477;48.072;11.970;2023-04-15T00:06:19;2.00;;;1.30;;
65206;SDS011;58477;48.072;11.970;2023-04-15T00:08:45;4.00;;;1.90;;
65206;SDS011;58477;48.072;11.970;2023-04-15T00:11:11;6.45;;;2.40;;
65206;SDS011;58477;48.072;11.970;2023-04-15T00:13:37;4.05;;;1.60;;
65206;SDS011;58477;48.072;11.970;2023-04-15T00:16:04;1.98;;;1.65;;
65206;SDS011;58477;48.072;11.970;2023-04-15T00:18:30;2.30;;;2.10;;
65206;SDS011;58477;48.072;11.970;2023-04-15T00:20:56;3.88;;;2.33;;
65206;SDS011;58477;48.072;11.970;2023-04-15T00:23:21;2.22;;;1.63;;
65206;SDS011;58477;48.072;11.970;2023-04-15T00:25:47;4.40;;;2.10;;
65206;SDS011;58477;48.072;11.970;2023-04-15T00:28:13;5.65;;;2.55;;
65206;SDS011;58477;48.072;11.970;2023-04-15T00:30:38;5.15;;;2.17;;
65206;SDS011;58477;48.072;11.970;2023-04-15T00:33:03;6.43;;;2.38;;
65206;SDS011;58477;48.072;11.970;2023-04-15T00:35:29;6.63;;;2.80;;
65206;SDS011;58477;48.072;11.970;2023-04-15T00:37:57;4.00;;;2.63;;
65206;SDS011;58477;48.072;11.970;2023-04-15T00:40:23;3.58;;;2.10;;
65206;SDS011;58477;48.072;11.970;2023-04-15T00:42:50;5.40;;;2.58;;
65206;SDS011;58477;48.072;11.970;2023-04-15T00:45:16;6.45;;;2.00;;
65206;SDS011;58477;48.072;11.970;2023-04-15T00:47:42;3.30;;;2.55;;
65206;SDS011;58477;48.072;11.970;2023-04-15T00:50:09;6.90;;;2.40;;
65206;SDS011;58477;48.072;11.970;2023-04-15T00:52:35;8.27;;;2.72;;
65206;SDS011;58477;48.072;11.970;2023-04-15T00:55:01;7.28;;;2.90;;
65206;SDS011;58477;48.072;11.970;2023-04-15T00:57:28;5.97;;;2.15;;
65206;SDS011;58477;48.072;11.970;2023-04-15T00:59:55;4.50;;;3.17;;
65206;SDS011;58477;48.072;11.970;2023-04-15T01:02:21;4.90;;;3.30;;
65206;SDS011;58477;48.072;11.970;2023-04-15T01:04:47;4.03;;;2.70;;
65206;SDS011;58477;48.072;11.970;2023-04-15T01:07:13;6.43;;;3.05;;
65206;SDS011;58477;48.072;11.970;2023-04-15T01:09:39;1.67;;;1.58;;
65206;SDS011;58477;48.072;11.970;2023-04-15T01:12:05;2.90;;;2.50;;
65206;SDS011;58477;48.072;11.970;2023-04-15T01:14:32;7.05;;;2.65;;
65206;SDS011;58477;48.072;11.970;2023-04-15T01:16:58;6.80;;;3.47;;
65206;SDS011;58477;48.072;11.970;2023-04-15T01:19:23;3.75;;;2.65;;
65206;SDS011;58477;48.072;11.970;2023-04-15T01:21:49;5.10;;;3.40;;
65206;SDS011;58477;48.072;11.970;2023-04-15T01:24:14;6.90;;;3.05;;
65206;SDS011;58477;48.072;11.970;2023-04-15T01:26:42;3.55;;;2.10;;
65206;SDS011;58477;48.072;11.970;2023-04-15T01:29:07;5.90;;;3.00;;
65206;SDS011;58477;48.072;11.970;2023-04-15T01:31:33;4.13;;;2.90;;
65206;SDS011;58477;48.072;11.970;2023-04-15T01:33:59;5.97;;;2.42;;
65206;SDS011;58477;48.072;11.970;2023-04-15T01:36:24;3.78;;;3.03;;
65206;SDS011;58477;48.072;11.970;2023-04-15T01:38:52;5.60;;;2.38;;
65206;SDS011;58477;48.072;11.970;2023-04-15T01:41:21;2.78;;;2.50;;
65206;SDS011;58477;48.072;11.970;2023-04-15T01:43:52;4.80;;;2.70;;
65206;SDS011;58477;48.072;11.970;2023-04-15T01:46:18;2.83;;;2.55;;
65206;SDS011;58477;48.072;11.970;2023-04-15T01:48:44;6.70;;;3.03;;
65206;SDS011;58477;48.072;11.970;2023-04-15T01:51:10;4.28;;;2.92;;
65206;SDS011;58477;48.072;11.970;2023-04-15T01:53:36;3.00;;;1.65;;
65206;SDS011;58477;48.072;11.970;2023-04-15T01:56:01;3.35;;;2.50;;
65206;SDS011;58477;48.072;11.970;2023-04-15T01:58:27;3.65;;;3.10;;
65206;SDS011;58477;48.072;11.970;2023-04-15T02:00:53;9.77;;;3.60;;
65206;SDS011;58477;48.072;11.970;2023-04-15T02:03:18;4.93;;;2.80;;
65206;SDS011;58477;48.072;11.970;2023-04-15T02:05:43;6.15;;;2.78;;
65206;SDS011;58477;48.072;11.970;2023-04-15T02:08:09;5.25;;;2.22;;
65206;SDS011;58477;48.072;11.970;2023-04-15T02:10:36;3.63;;;3.03;;
65206;SDS011;58477;48.072;11.970;2023-04-15T02:13:03;3.58;;;2.80;;
65206;SDS011;58477;48.072;11.970;2023-04-15T02:15:29;5.45;;;3.53;;
65206;SDS011;58477;48.072;11.970;2023-04-15T02:17:54;4.05;;;3.58;;
65206;SDS011;58477;48.072;11.970;2023-04-15T02:20:20;6.45;;;3.45;;
65206;SDS011;58477;48.072;11.970;2023-04-15T02:22:46;7.45;;;3.10;;
65206;SDS011;58477;48.072;11.970;2023-04-15T02:25:13;3.03;;;2.45;;
65206;SDS011;58477;48.072;11.970;2023-04-15T02:27:41;5.10;;;3.00;;
65206;SDS011;58477;48.072;11.970;2023-04-15T02:30:07;7.90;;;3.80;;
65206;SDS011;58477;48.072;11.970;2023-04-15T02:32:33;4.20;;;3.05;;
65206;SDS011;58477;48.072;11.970;2023-04-15T02:35:05;5.90;;;3.10;;
65206;SDS011;58477;48.072;11.970;2023-04-15T02:37:34;4.82;;;3.55;;
65206;SDS011;58477;48.072;11.970;2023-04-15T02:40:06;5.25;;;3.03;;
65206;SDS011;58477;48.072;11.970;2023-04-15T02:42:33;7.07;;;3.33;;
65206;SDS011;58477;48.072;11.970;2023-04-15T02:45:00;5.70;;;3.25;;
65206;SDS011;58477;48.072;11.970;2023-04-15T02:47:29;10.60;;;3.15;;
65206;SDS011;58477;48.072;11.970;2023-04-15T02:49:55;3.40;;;2.75;;
65206;SDS011;58477;48.072;11.970;2023-04-15T02:52:22;7.95;;;3.10;;
65206;SDS011;58477;48.072;11.970;2023-04-15T02:54:48;5.05;;;3.28;;
65206;SDS011;58477;48.072;11.970;2023-04-15T02:57:14;5.18;;;2.63;;
65206;SDS011;58477;48.072;11.970;2023-04-15T02:59:39;3.70;;;2.83;;
65206;SDS011;58477;48.072;11.970;2023-04-15T03:02:05;5.90;;;2.83;;
65206;SDS011;58477;48.072;11.970;2023-04-15T03:04:31;10.75;;;3.63;;
65206;SDS011;58477;48.072;11.970;2023-04-15T03:06:57;4.05;;;2.92;;
65206;SDS011;58477;48.072;11.970;2023-04-15T03:09:23;4.68;;;3.40;;
65206;SDS011;58477;48.072;11.970;2023-04-15T03:11:49;4.05;;;3.53;;
65206;SDS011;58477;48.072;11.970;2023-04-15T03:14:17;3.95;;;3.05;;
65206;SDS011;58477;48.072;11.970;2023-04-15T03:16:45;9.50;;;2.88;;
65206;SDS011;58477;48.072;11.970;2023-04-15T03:19:12;4.75;;;3.30;;
65206;SDS011;58477;48.072;11.970;2023-04-15T03:21:40;5.05;;;4.00;;
65206;SDS011;58477;48.072;11.970;2023-04-15T03:24:07;8.68;;;3.88;;
65206;SDS011;58477;48.072;11.970;2023-04-15T03:26:32;2.33;;;2.15;;
65206;SDS011;58477;48.072;11.970;2023-04-15T03:29:01;10.70;;;4.03;;
65206;SDS011;58477;48.072;11.970;2023-04-15T03:31:27;9.45;;;4.13;;
65206;SDS011;58477;48.072;11.970;2023-04-15T03:33:52;6.50;;;4.22;;
65206;SDS011;58477;48.072;11.970;2023-04-15T03:36:17;4.80;;;3.17;;
65206;SDS011;58477;48.072;11.970;2023-04-15T03:38:43;8.23;;;2.70;;
65206;SDS011;58477;48.072;11.970;2023-04-15T03:41:08;4.60;;;2.83;;
65206;SDS011;58477;48.072;11.970;2023-04-15T03:43:34;5.75;;;3.08;;
65206;SDS011;58477;48.072;11.970;2023-04-15T03:46:00;5.78;;;3.53;;
65206;SDS011;58477;48.072;11.970;2023-04-15T03:48:25;4.97;;;3.45;;
65206;SDS011;58477;48.072;11.970;2023-04-15T03:50:51;9.77;;;3.42;;
65206;SDS011;58477;48.072;11.970;2023-04-15T03:53:16;6.82;;;3.85;;
65206;SDS011;58477;48.072;11.970;2023-04-15T03:55:42;4.82;;;3.15;;
65206;SDS011;58477;48.072;11.970;2023-04-15T03:58:08;5.68;;;3.00;;
65206;SDS011;58477;48.072;11.970;2023-04-15T04:00:36;2.47;;;2.15;;
65206;SDS011;58477;48.072;11.970;2023-04-15T04:03:02;6.90;;;3.85;;
65206;SDS011;58477;48.072;11.970;2023-04-15T04:05:28;5.35;;;2.90;;
65206;SDS011;58477;48.072;11.970;2023-04-15T04:07:54;5.32;;;2.63;;
65206;SDS011;58477;48.072;11.970;2023-04-15T04:10:20;5.57;;;3.40;;
65206;SDS011;58477;48.072;11.970;2023-04-15T04:12:45;4.70;;;3.00;;
65206;SDS011;58477;48.072;11.970;2023-04-15T04:15:11;3.53;;;3.05;;
65206;SDS011;58477;48.072;11.970;2023-04-15T04:17:36;5.22;;;2.40;;
65206;SDS011;58477;48.072;11.970;2023-04-15T04:20:01;3.40;;;3.05;;
65206;SDS011;58477;48.072;11.970;2023-04-15T04:22:27;5.82;;;3.20;;
65206;SDS011;58477;48.072;11.970;2023-04-15T04:24:52;9.10;;;3.33;;
65206;SDS011;58477;48.072;11.970;2023-04-15T04:27:18;3.60;;;2.80;;
65206;SDS011;58477;48.072;11.970;2023-04-15T04:29:43;3.72;;;2.60;;
65206;SDS011;58477;48.072;11.970;2023-04-15T04:32:09;7.82;;;2.95;;
65206;SDS011;58477;48.072;11.970;2023-04-15T04:34:34;3.83;;;3.08;;
65206;SDS011;58477;48.072;11.970;2023-04-15T04:37:00;8.13;;;3.63;;
65206;SDS011;58477;48.072;11.970;2023-04-15T04:39:25;7.28;;;3.33;;
65206;SDS011;58477;48.072;11.970;2023-04-15T04:41:51;10.40;;;3.33;;
65206;SDS011;58477;48.072;11.970;2023-04-15T04:44:16;4.60;;;3.28;;
65206;SDS011;58477;48.072;11.970;2023-04-15T04:46:42;5.15;;;3.28;;
65206;SDS011;58477;48.072;11.970;2023-04-15T04:49:08;4.95;;;2.85;;
65206;SDS011;58477;48.072;11.970;2023-04-15T04:51:33;5.63;;;2.92;;
65206;SDS011;58477;48.072;11.970;2023-04-15T04:53:58;4.40;;;2.72;;
65206;SDS011;58477;48.072;11.970;2023-04-15T04:56:24;2.45;;;2.05;;
65206;SDS011;58477;48.072;11.970;2023-04-15T04:58:49;6.53;;;2.35;;
65206;SDS011;58477;48.072;11.970;2023-04-15T05:01:15;6.07;;;2.72;;
65206;SDS011;58477;48.072;11.970;2023-04-15T05:03:41;4.25;;;2.55;;
65206;SDS011;58477;48.072;11.970;2023-04-15T05:06:06;7.70;;;2.40;;
65206;SDS011;58477;48.072;11.970;2023-04-15T05:08:33;2.67;;;2.30;;
65206;SDS011;58477;48.072;11.970;2023-04-15T05:10:58;4.15;;;2.13;;
65206;SDS011;58477;48.072;11.970;2023-04-15T05:13:24;3.60;;;2.50;;
65206;SDS011;58477;48.072;11.970;2023-04-15T05:15:49;3.15;;;1.85;;
65206;SDS011;58477;48.072;11.970;2023-04-15T05:18:15;4.30;;;1.75;;
65206;SDS011;58477;48.072;11.970;2023-04-15T05:20:41;1.80;;;1.50;;
65206;SDS011;58477;48.072;11.970;2023-04-15T05:23:06;4.32;;;1.60;;
65206;SDS011;58477;48.072;11.970;2023-04-15T05:25:32;3.13;;;2.25;;
65206;SDS011;58477;48.072;11.970;2023-04-15T05:27:57;2.80;;;1.75;;
65206;SDS011;58477;48.072;11.970;2023-04-15T05:30:23;5.90;;;2.03;;
65206;SDS011;58477;48.072;11.970;2023-04-15T05:32:48;6.70;;;2.53;;
65206;SDS011;58477;48.072;11.970;2023-04-15T05:35:14;2.92;;;2.10;;
65206;SDS011;58477;48.072;11.970;2023-04-15T05:37:39;6.05;;;2.38;;
65206;SDS011;58477;48.072;11.970;2023-04-15T05:40:05;2.88;;;2.17;;
65206;SDS011;58477;48.072;11.970;2023-04-15T05:42:30;4.00;;;2.42;;
65206;SDS011;58477;48.072;11.970;2023-04-15T05:44:56;2.20;;;1.77;;
65206;SDS011;58477;48.072;11.970;2023-04-15T05:47:21;3.00;;;2.03;;
65206;SDS011;58477;48.072;11.970;2023-04-15T05:49:47;4.35;;;2.10;;
65206;SDS011;58477;48.072;11.970;2023-04-15T05:52:12;4.25;;;2.70;;
65206;SDS011;58477;48.072;11.970;2023-04-15T05:54:37;2.75;;;1.85;;
65206;SDS011;58477;48.072;11.970;2023-04-15T05:57:03;4.78;;;2.25;;
65206;SDS011;58477;48.072;11.970;2023-04-15T05:59:28;2.75;;;2.20;;
65206;SDS011;58477;48.072;11.970;2023-04-15T06:01:54;3.33;;;2.25;;
65206;SDS011;58477;48.072;11.970;2023-04-15T06:04:19;3.20;;;2.03;;
65206;SDS011;58477;48.072;11.970;2023-04-15T06:06:44;7.78;;;2.53;;
65206;SDS011;58477;48.072;11.970;2023-04-15T06:09:10;4.03;;;2.30;;
65206;SDS011;58477;48.072;11.970;2023-04-15T06:11:35;4.85;;;2.13;;
65206;SDS011;58477;48.072;11.970;2023-04-15T06:14:01;5.30;;;2.05;;
65206;SDS011;58477;48.072;11.970;2023-04-15T06:16:26;2.58;;;2.15;;
65206;SDS011;58477;48.072;11.970;2023-04-15T06:18:52;4.82;;;2.38;;
65206;SDS011;58477;48.072;11.970;2023-04-15T06:21:17;2.28;;;1.70;;
65206;SDS011;58477;48.072;11.970;2023-04-15T06:23:43;4.32;;;1.88;;
65206;SDS011;58477;48.072;11.970;2023-04-15T06:26:08;4.78;;;1.73;;
65206;SDS011;58477;48.072;11.970;2023-04-15T06:28:34;4.40;;;1.42;;
65206;SDS011;58477;48.072;11.970;2023-04-15T06:30:59;5.70;;;1.98;;
65206;SDS011;58477;48.072;11.970;2023-04-15T06:33:26;5.80;;;1.73;;
65206;SDS011;58477;48.072;11.970;2023-04-15T06:35:51;2.78;;;1.67;;
65206;SDS011;58477;48.072;11.970;2023-04-15T06:38:17;2.65;;;1.85;;
65206;SDS011;58477;48.072;11.970;2023-04-15T06:40:42;2.75;;;1.60;;
65206;SDS011;58477;48.072;11.970;2023-04-15T06:43:08;3.40;;;1.42;;
65206;SDS011;58477;48.072;11.970;2023-04-15T06:45:34;3.25;;;1.88;;
65206;SDS011;58477;48.072;11.970;2023-04-15T06:47:59;2.88;;;1.40;;
65206;SDS011;58477;48.072;11.970;2023-04-15T06:50:25;2.10;;;1.40;;
65206;SDS011;58477;48.072;11.970;2023-04-15T06:52:51;4.20;;;1.83;;
65206;SDS011;58477;48.072;11.970;2023-04-15T06:55:17;3.33;;;1.80;;
65206;SDS011;58477;48.072;11.970;2023-04-15T06:57:43;4.80;;;1.77;;
65206;SDS011;58477;48.072;11.970;2023-04-15T07:00:08;3.15;;;1.83;;
65206;SDS011;58477;48.072;11.970;2023-04-15T07:02:36;1.75;;;1.38;;
65206;SDS011;58477;48.072;11.970;2023-04-15T07:05:01;2.75;;;1.30;;
65206;SDS011;58477;48.072;11.970;2023-04-15T07:07:26;4.20;;;1.73;;
65206;SDS011;58477;48.072;11.970;2023-04-15T07:09:52;2.20;;;1.60;;
65206;SDS011;58477;48.072;11.970;2023-04-15T07:12:18;2.45;;;1.63;;
65206;SDS011;58477;48.072;11.970;2023-04-15T07:14:43;4.55;;;1.50;;
65206;SDS011;58477;48.072;11.970;2023-04-15T07:17:09;2.33;;;1.42;;
65206;SDS011;58477;48.072;11.970;2023-04-15T07:19:35;3.28;;;1.90;;
65206;SDS011;58477;48.072;11.970;2023-04-15T07:22:01;5.10;;;2.03;;
65206;SDS011;58477;48.072;11.970;2023-04-15T07:24:26;3.65;;;1.40;;
65206;SDS011;58477;48.072;11.970;2023-04-15T07:26:54;3.53;;;1.88;;
65206;SDS011;58477;48.072;11.970;2023-04-15T07:29:23;1.42;;;1.17;;
65206;SDS011;58477;48.072;11.970;2023-04-15T07:31:49;5.32;;;1.48;;
65206;SDS011;58477;48.072;11.970;2023-04-15T07:34:15;2.25;;;1.42;;
65206;SDS011;58477;48.072;11.970;2023-04-15T07:36:41;2.83;;;1.38;;
65206;SDS011;58477;48.072;11.970;2023-04-15T07:39:07;1.77;;;1.10;;
65206;SDS011;58477;48.072;11.970;2023-04-15T07:41:32;2.88;;;2.15;;
65206;SDS011;58477;48.072;11.970;2023-04-15T07:43:58;2.50;;;1.25;;
65206;SDS011;58477;48.072;11.970;2023-04-15T07:46:23;3.00;;;2.13;;
65206;SDS011;58477;48.072;11.970;2023-04-15T07:48:51;3.03;;;1.70;;
65206;SDS011;58477;48.072;11.970;2023-04-15T07:51:17;3.28;;;1.40;;
65206;SDS011;58477;48.072;11.970;2023-04-15T07:53:43;1.95;;;1.48;;
65206;SDS011;58477;48.072;11.970;2023-04-15T07:56:09;4.60;;;2.20;;
65206;SDS011;58477;48.072;11.970;2023-04-15T07:58:35;2.53;;;1.80;;
65206;SDS011;58477;48.072;11.970;2023-04-15T08:01:01;6.05;;;1.27;;
65206;SDS011;58477;48.072;11.970;2023-04-15T08:03:26;9.98;;;2.47;;
65206;SDS011;58477;48.072;11.970;2023-04-15T08:05:52;1.90;;;1.48;;
65206;SDS011;58477;48.072;11.970;2023-04-15T08:08:18;2.90;;;1.83;;
65206;SDS011;58477;48.072;11.970;2023-04-15T08:10:43;4.82;;;2.42;;
65206;SDS011;58477;48.072;11.970;2023-04-15T08:13:09;7.10;;;1.58;;
65206;SDS011;58477;48.072;11.970;2023-04-15T08:15:34;4.68;;;2.38;;
65206;SDS011;58477;48.072;11.970;2023-04-15T08:18:00;3.17;;;1.58;;
65206;SDS011;58477;48.072;11.970;2023-04-15T08:20:25;2.58;;;1.83;;
65206;SDS011;58477;48.072;11.970;2023-04-15T08:22:51;7.38;;;2.30;;
65206;SDS011;58477;48.072;11.970;2023-04-15T08:25:17;5.82;;;2.13;;
65206;SDS011;58477;48.072;11.970;2023-04-15T08:27:44;3.45;;;2.15;;
65206;SDS011;58477;48.072;11.970;2023-04-15T08:30:10;2.92;;;2.15;;
65206;SDS011;58477;48.072;11.970;2023-04-15T08:32:36;5.10;;;2.40;;
65206;SDS011;58477;48.072;11.970;2023-04-15T08:35:01;4.38;;;2.38;;
65206;SDS011;58477;48.072;11.970;2023-04-15T08:37:27;3.83;;;2.03;;
65206;SDS011;58477;48.072;11.970;2023-04-15T08:39:52;8.32;;;2.20;;
65206;SDS011;58477;48.072;11.970;2023-04-15T08:42:18;4.28;;;1.98;;
65206;SDS011;58477;48.072;11.970;2023-04-15T08:44:49;6.87;;;2.13;;
65206;SDS011;58477;48.072;11.970;2023-04-15T08:47:15;3.88;;;2.35;;
65206;SDS011;58477;48.072;11.970;2023-04-15T08:49:44;3.45;;;2.10;;
65206;SDS011;58477;48.072;11.970;2023-04-15T08:52:12;3.30;;;2.00;;
65206;SDS011;58477;48.072;11.970;2023-04-15T08:54:38;3.40;;;2.08;;
65206;SDS011;58477;48.072;11.970;2023-04-15T08:57:03;3.05;;;2.08;;
65206;SDS011;58477;48.072;11.970;2023-04-15T08:59:29;8.85;;;2.55;;
65206;SDS011;58477;48.072;11.970;2023-04-15T09:01:56;4.78;;;2.10;;
65206;SDS011;58477;48.072;11.970;2023-04-15T09:04:22;6.45;;;2.50;;
65206;SDS011;58477;48.072;11.970;2023-04-15T09:06:47;2.40;;;2.20;;
65206;SDS011;58477;48.072;11.970;2023-04-15T09:09:13;4.07;;;2.17;;
65206;SDS011;58477;48.072;11.970;2023-04-15T09:11:38;4.05;;;2.40;;
65206;SDS011;58477;48.072;11.970;2023-04-15T09:14:04;3.20;;;2.17;;
65206;SDS011;58477;48.072;11.970;2023-04-15T09:16:30;4.78;;;2.40;;
65206;SDS011;58477;48.072;11.970;2023-04-15T09:18:55;5.93;;;2.47;;
65206;SDS011;58477;48.072;11.970;2023-04-15T09:21:21;3.35;;;2.47;;
65206;SDS011;58477;48.072;11.970;2023-04-15T09:23:54;11.40;;;5.88;;
65206;SDS011;58477;48.072;11.970;2023-04-15T09:26:30;13.23;;;5.20;;
65206;SDS011;58477;48.072;11.970;2023-04-15T09:29:05;10.13;;;4.90;;
65206;SDS011;58477;48.072;11.970;2023-04-15T09:31:32;10.90;;;4.35;;
65206;SDS011;58477;48.072;11.970;2023-04-15T09:33:57;5.80;;;2.70;;
65206;SDS011;58477;48.072;11.970;2023-04-15T09:36:23;5.63;;;2.83;;
65206;SDS011;58477;48.072;11.970;2023-04-15T09:38:57;5.03;;;2.40;;
65206;SDS011;58477;48.072;11.970;2023-04-15T09:41:24;4.05;;;2.70;;
65206;SDS011;58477;48.072;11.970;2023-04-15T09:43:50;6.10;;;2.72;;
65206;SDS011;58477;48.072;11.970;2023-04-15T09:46:15;6.95;;;3.30;;
65206;SDS011;58477;48.072;11.970;2023-04-15T09:48:41;8.57;;;3.33;;
65206;SDS011;58477;48.072;11.970;2023-04-15T09:51:06;7.55;;;3.67;;
65206;SDS011;58477;48.072;11.970;2023-04-15T09:53:33;8.73;;;3.97;;
65206;SDS011;58477;48.072;11.970;2023-04-15T09:56:00;8.15;;;3.75;;
65206;SDS011;58477;48.072;11.970;2023-04-15T10:00:56;7.03;;;3.78;;
65206;SDS011;58477;48.072;11.970;2023-04-15T10:03:27;6.38;;;3.97;;
65206;SDS011;58477;48.072;11.970;2023-04-15T10:05:54;6.85;;;3.92;;
65206;SDS011;58477;48.072;11.970;2023-04-15T10:08:21;7.07;;;4.15;;
65206;SDS011;58477;48.072;11.970;2023-04-15T10:10:49;7.40;;;3.85;;
65206;SDS011;58477;48.072;11.970;2023-04-15T10:13:23;5.75;;;4.15;;
65206;SDS011;58477;48.072;11.970;2023-04-15T10:15:50;6.20;;;4.15;;
65206;SDS011;58477;48.072;11.970;2023-04-15T10:18:20;9.73;;;5.40;;
65206;SDS011;58477;48.072;11.970;2023-04-15T10:20:49;7.90;;;5.40;;
65206;SDS011;58477;48.072;11.970;2023-04-15T10:23:15;11.25;;;5.40;;
65206;SDS011;58477;48.072;11.970;2023-04-15T10:25:41;9.18;;;4.68;;
65206;SDS011;58477;48.072;11.970;2023-04-15T10:28:07;10.25;;;4.95;;
65206;SDS011;58477;48.072;11.970;2023-04-15T10:30:33;6.70;;;4.60;;
65206;SDS011;58477;48.072;11.970;2023-04-15T10:33:00;6.88;;;4.10;;
65206;SDS011;58477;48.072;11.970;2023-04-15T10:35:28;5.68;;;4.43;;
65206;SDS011;58477;48.072;11.970;2023-04-15T10:37:55;5.68;;;4.25;;
65206;SDS011;58477;48.072;11.970;2023-04-15T10:40:27;7.80;;;4.70;;
65206;SDS011;58477;48.072;11.970;2023-04-15T10:42:57;11.43;;;5.15;;
65206;SDS011;58477;48.072;11.970;2023-04-15T10:45:27;7.10;;;4.32;;
65206;SDS011;58477;48.072;11.970;2023-04-15T10:48:00;7.50;;;4.55;;
65206;SDS011;58477;48.072;11.970;2023-04-15T10:50:27;7.50;;;4.40;;
65206;SDS011;58477;48.072;11.970;2023-04-15T10:52:55;9.77;;;5.03;;
65206;SDS011;58477;48.072;11.970;2023-04-15T10:55:22;7.75;;;5.15;;
65206;SDS011;58477;48.072;11.970;2023-04-15T10:57:52;7.95;;;4.47;;
65206;SDS011;58477;48.072;11.970;2023-04-15T11:00:19;7.90;;;4.45;;
65206;SDS011;58477;48.072;11.970;2023-04-15T11:02:56;9.07;;;4.88;;
65206;SDS011;58477;48.072;11.970;2023-04-15T11:08:03;6.00;;;4.50;;
65206;SDS011;58477;48.072;11.970;2023-04-15T11:13:06;7.43;;;4.50;;
65206;SDS011;58477;48.072;11.970;2023-04-15T11:15:44;6.18;;;4.22;;
65206;SDS011;58477;48.072;11.970;2023-04-15T11:18:17;5.18;;;3.35;;
65206;SDS011;58477;48.072;11.970;2023-04-15T11:20:51;5.72;;;3.70;;
65206;SDS011;58477;48.072;11.970;2023-04-15T11:23:40;6.07;;;4.05;;
65206;SDS011;58477;48.072;11.970;2023-04-15T11:26:11;4.47;;;3.30;;
65206;SDS011;58477;48.072;11.970;2023-04-15T11:28:38;4.00;;;3.38;;
65206;SDS011;58477;48.072;11.970;2023-04-15T11:31:06;5.65;;;3.55;;
65206;SDS011;58477;48.072;11.970;2023-04-15T11:33:34;8.70;;;4.32;;
65206;SDS011;58477;48.072;11.970;2023-04-15T11:36:00;7.78;;;4.13;;
65206;SDS011;58477;48.072;11.970;2023-04-15T11:38:26;7.32;;;4.13;;
65206;SDS011;58477;48.072;11.970;2023-04-15T11:40:51;5.10;;;3.58;;
65206;SDS011;58477;48.072;11.970;2023-04-15T11:43:18;5.03;;;3.47;;
65206;SDS011;58477;48.072;11.970;2023-04-15T11:45:58;4.47;;;3.50;;
65206;SDS011;58477;48.072;11.970;2023-04-15T11:48:26;6.88;;;4.18;;
65206;SDS011;58477;48.072;11.970;2023-04-15T11:50:54;5.10;;;3.45;;
65206;SDS011;58477;48.072;11.970;2023-04-15T11:53:22;3.95;;;3.40;;
65206;SDS011;58477;48.072;11.970;2023-04-15T11:55:50;6.10;;;4.07;;
65206;SDS011;58477;48.072;11.970;2023-04-15T11:58:20;4.75;;;3.75;;
65206;SDS011;58477;48.072;11.970;2023-04-15T12:00:48;5.63;;;3.55;;
65206;SDS011;58477;48.072;11.970;2023-04-15T12:03:25;4.93;;;3.83;;
65206;SDS011;58477;48.072;11.970;2023-04-15T12:11:39;6.43;;;3.80;;
65206;SDS011;58477;48.072;11.970;2023-04-15T12:16:46;4.68;;;3.83;;
65206;SDS011;58477;48.072;11.970;2023-04-15T12:19:14;5.20;;;3.97;;
65206;SDS011;58477;48.072;11.970;2023-04-15T12:21:50;6.80;;;3.22;;
65206;SDS011;58477;48.072;11.970;2023-04-15T12:24:21;6.35;;;3.70;;
65206;SDS011;58477;48.072;11.970;2023-04-15T12:26:48;5.60;;;2.90;;
65206;SDS011;58477;48.072;11.970;2023-04-15T12:29:18;11.60;;;4.18;;
65206;SDS011;58477;48.072;11.970;2023-04-15T12:31:45;7.15;;;3.95;;
65206;SDS011;58477;48.072;11.970;2023-04-15T12:34:15;7.50;;;3.92;;
65206;SDS011;58477;48.072;11.970;2023-04-15T12:36:41;5.50;;;3.83;;
65206;SDS011;58477;48.072;11.970;2023-04-15T12:39:07;5.22;;;3.35;;
65206;SDS011;58477;48.072;11.970;2023-04-15T12:41:33;8.68;;;3.97;;
65206;SDS011;58477;48.072;11.970;2023-04-15T12:43:59;5.78;;;3.80;;
65206;SDS011;58477;48.072;11.970;2023-04-15T12:46:25;8.07;;;4.13;;
65206;SDS011;58477;48.072;11.970;2023-04-15T12:48:51;5.90;;;4.13;;
65206;SDS011;58477;48.072;11.970;2023-04-15T12:51:17;6.63;;;4.20;;
65206;SDS011;58477;48.072;11.970;2023-04-15T12:53:43;4.78;;;3.85;;
65206;SDS011;58477;48.072;11.970;2023-04-15T12:56:08;5.57;;;4.22;;
65206;SDS011;58477;48.072;11.970;2023-04-15T12:58:34;9.45;;;4.53;;
65206;SDS011;58477;48.072;11.970;2023-04-15T13:01:00;5.70;;;4.00;;
65206;SDS011;58477;48.072;11.970;2023-04-15T13:03:25;6.45;;;4.13;;
65206;SDS011;58477;48.072;11.970;2023-04-15T13:05:50;9.38;;;3.80;;
65206;SDS011;58477;48.072;11.970;2023-04-15T13:08:16;6.18;;;3.90;;
65206;SDS011;58477;48.072;11.970;2023-04-15T13:10:42;5.82;;;3.72;;
65206;SDS011;58477;48.072;11.970;2023-04-15T13:13:07;5.15;;;3.72;;
65206;SDS011;58477;48.072;11.970;2023-04-15T13:15:33;6.25;;;3.22;;
65206;SDS011;58477;48.072;11.970;2023-04-15T13:17:58;4.03;;;3.63;;
65206;SDS011;58477;48.072;11.970;2023-04-15T13:20:25;5.20;;;3.47;;
65206;SDS011;58477;48.072;11.970;2023-04-15T13:22:51;5.85;;;3.58;;
65206;SDS011;58477;48.072;11.970;2023-04-15T13:25:17;6.95;;;3.30;;
65206;SDS011;58477;48.072;11.970;2023-04-15T13:27:43;5.50;;;3.50;;
65206;SDS011;58477;48.072;11.970;2023-04-15T13:30:09;5.38;;;3.33;;
65206;SDS011;58477;48.072;11.970;2023-04-15T13:32:34;3.90;;;2.30;;
65206;SDS011;58477;48.072;11.970;2023-04-15T13:35:00;6.25;;;3.53;;
65206;SDS011;58477;48.072;11.970;2023-04-15T13:37:26;8.43;;;3.67;;
65206;SDS011;58477;48.072;11.970;2023-04-15T13:39:52;5.30;;;3.40;;
65206;SDS011;58477;48.072;11.970;2023-04-15T13:42:18;6.03;;;3.63;;
65206;SDS011;58477;48.072;11.970;2023-04-15T13:44:43;6.45;;;4.10;;
65206;SDS011;58477;48.072;11.970;2023-04-15T13:47:09;6.25;;;3.97;;
65206;SDS011;58477;48.072;11.970;2023-04-15T13:49:34;6.70;;;3.88;;
65206;SDS011;58477;48.072;11.970;2023-04-15T13:52:00;8.50;;;4.13;;
65206;SDS011;58477;48.072;11.970;2023-04-15T13:54:25;5.45;;;3.55;;
65206;SDS011;58477;48.072;11.970;2023-04-15T13:56:51;7.45;;;3.50;;
65206;SDS011;58477;48.072;11.970;2023-04-15T13:59:16;3.90;;;3.47;;
65206;SDS011;58477;48.072;11.970;2023-04-15T14:01:42;5.57;;;4.43;;
65206;SDS011;58477;48.072;11.970;2023-04-15T14:04:08;4.68;;;3.55;;
65206;SDS011;58477;48.072;11.970;2023-04-15T14:06:33;7.28;;;3.88;;
65206;SDS011;58477;48.072;11.970;2023-04-15T14:08:59;7.40;;;3.42;;
65206;SDS011;58477;48.072;11.970;2023-04-15T14:11:25;4.50;;;3.22;;
65206;SDS011;58477;48.072;11.970;2023-04-15T14:13:50;7.05;;;4.10;;
65206;SDS011;58477;48.072;11.970;2023-04-15T14:16:15;9.02;;;3.80;;
65206;SDS011;58477;48.072;11.970;2023-04-15T14:18:41;5.55;;;3.88;;
65206;SDS011;58477;48.072;11.970;2023-04-15T14:21:08;8.35;;;4.13;;
65206;SDS011;58477;48.072;11.970;2023-04-15T14:23:33;7.13;;;3.85;;
65206;SDS011;58477;48.072;11.970;2023-04-15T14:25:59;7.03;;;3.78;;
65206;SDS011;58477;48.072;11.970;2023-04-15T14:28:24;4.30;;;3.47;;
65206;SDS011;58477;48.072;11.970;2023-04-15T14:30:50;9.68;;;3.75;;
65206;SDS011;58477;48.072;11.970;2023-04-15T14:33:15;7.50;;;4.25;;
65206;SDS011;58477;48.072;11.970;2023-04-15T14:35:41;8.15;;;4.65;;
65206;SDS011;58477;48.072;11.970;2023-04-15T14:38:06;7.22;;;4.78;;
65206;SDS011;58477;48.072;11.970;2023-04-15T14:40:34;9.18;;;4.53;;
65206;SDS011;58477;48.072;11.970;2023-04-15T14:43:00;5.07;;;4.00;;
65206;SDS011;58477;48.072;11.970;2023-04-15T14:45:26;7.55;;;4.10;;